Time;durP1;ratioP1;P1;durP2;ratioP2;P2;SDS_P1;SDS_P2;PMS_P1;PMS_P2;Temp;Humidity;BMP_temperature;BMP_pressure;BME280_temperature;BME280_humidity;BME280_pressure;Samples;Min_cycle;Max_cycle;Signal;HPM_P1;HPM_P2
2023/07/13 00:02:21;;;;;;;3.50;0.90;;;;;;;;;;5032231;28;20048;-84
2023/07/13 00:04:47;;;;;;;2.75;1.00;;;;;;;;;;5024911;28;20037;-81
2023/07/13 00:07:14;;;;;;;4.03;1.00;;;;;;;;;;5036442;28;20104;-84
2023/07/13 00:09:40;;;;;;;3.67;1.02;;;;;;;;;;5026117;28;20262;-84
2023/07/13 00:12:22;;;;;;;2.72;1.00;;;;;;;;;;5029713;28;20099;-85
2023/07/13 00:14:49;;;;;;;3.15;0.90;;;;;;;;;;5036728;28;20029;-84
2023/07/13 00:17:14;;;;;;;3.88;0.82;;;;;;;;;;5034434;28;20478;-85
2023/07/13 00:19:40;;;;;;;3.92;0.95;;;;;;;;;;5034899;28;20037;-83
2023/07/13 00:22:05;;;;;;;3.75;0.90;;;;;;;;;;5031338;28;20025;-82
2023/07/13 00:24:30;;;;;;;2.80;1.00;;;;;;;;;;5038807;28;20117;-85
2023/07/13 00:26:56;;;;;;;2.30;0.80;;;;;;;;;;5040460;28;20032;-85
2023/07/13 00:29:21;;;;;;;3.70;1.05;;;;;;;;;;5036222;28;20060;-79
2023/07/13 00:31:47;;;;;;;4.80;1.05;;;;;;;;;;5032190;28;20381;-85
2023/07/13 00:34:12;;;;;;;2.75;1.05;;;;;;;;;;5029706;28;20074;-82
2023/07/13 00:36:38;;;;;;;5.10;1.02;;;;;;;;;;5030758;28;20513;-85
2023/07/13 00:39:03;;;;;;;4.40;1.20;;;;;;;;;;5024223;28;20048;-83
2023/07/13 00:41:30;;;;;;;3.13;1.08;;;;;;;;;;5024233;28;20117;-85
2023/07/13 00:43:55;;;;;;;2.47;1.00;;;;;;;;;;5027978;28;20033;-85
2023/07/13 00:46:31;;;;;;;3.05;0.90;;;;;;;;;;5006360;28;20025;-85
2023/07/13 00:49:07;;;;;;;5.50;1.20;;;;;;;;;;5028018;28;20026;-85
2023/07/13 00:51:40;;;;;;;4.78;1.27;;;;;;;;;;5030412;28;20025;-85
2023/07/13 00:54:11;;;;;;;3.42;1.25;;;;;;;;;;5030308;28;20033;-85
2023/07/13 00:56:37;;;;;;;5.10;1.10;;;;;;;;;;5029963;28;20041;-84
2023/07/13 00:59:05;;;;;;;3.92;1.40;;;;;;;;;;5024926;28;20037;-81
2023/07/13 01:01:30;;;;;;;3.63;1.20;;;;;;;;;;5026132;28;20091;-85
2023/07/13 01:03:56;;;;;;;3.50;1.20;;;;;;;;;;5029547;28;20100;-83
2023/07/13 01:06:22;;;;;;;3.85;1.27;;;;;;;;;;5032022;28;20112;-85
2023/07/13 01:08:48;;;;;;;5.60;1.38;;;;;;;;;;5028665;28;20514;-85
2023/07/13 01:11:18;;;;;;;5.78;1.40;;;;;;;;;;5030370;28;20037;-85
2023/07/13 01:13:44;;;;;;;5.13;1.77;;;;;;;;;;5029029;28;20021;-85
2023/07/13 01:16:25;;;;;;;3.75;1.17;;;;;;;;;;5033063;28;20406;-85
2023/07/13 01:18:51;;;;;;;4.10;1.20;;;;;;;;;;5029582;28;20075;-84
2023/07/13 01:21:17;;;;;;;3.50;1.30;;;;;;;;;;5029109;28;20056;-85
2023/07/13 01:23:44;;;;;;;3.92;1.30;;;;;;;;;;5034321;28;20108;-82
2023/07/13 01:26:09;;;;;;;5.15;1.50;;;;;;;;;;5034917;28;20033;-85
2023/07/13 01:28:36;;;;;;;4.55;1.27;;;;;;;;;;5038284;28;20423;-84
2023/07/13 01:31:03;;;;;;;4.70;1.40;;;;;;;;;;5047703;28;20601;-86
2023/07/13 01:33:28;;;;;;;6.00;1.73;;;;;;;;;;5035784;28;20022;-80
2023/07/13 01:35:57;;;;;;;3.10;1.20;;;;;;;;;;5033704;28;20478;-83
2023/07/13 01:38:24;;;;;;;4.57;1.45;;;;;;;;;;5030100;28;20112;-85
2023/07/13 01:40:50;;;;;;;3.90;1.58;;;;;;;;;;5047291;28;20474;-86
2023/07/13 01:43:17;;;;;;;5.18;1.50;;;;;;;;;;5026959;28;20402;-85
2023/07/13 01:45:43;;;;;;;4.75;1.60;;;;;;;;;;5035545;28;20394;-82
2023/07/13 01:48:09;;;;;;;5.07;1.42;;;;;;;;;;5031942;28;20030;-82
2023/07/13 01:50:35;;;;;;;5.10;1.52;;;;;;;;;;5033070;28;20433;-83
2023/07/13 01:53:01;;;;;;;4.40;1.50;;;;;;;;;;5033304;28;20033;-77
2023/07/13 01:55:28;;;;;;;3.85;1.42;;;;;;;;;;5035398;28;20032;-84
2023/07/13 01:57:53;;;;;;;5.43;1.50;;;;;;;;;;5031714;28;20036;-84
2023/07/13 02:00:19;;;;;;;4.63;1.60;;;;;;;;;;5030770;28;20041;-83
2023/07/13 02:02:44;;;;;;;6.07;1.70;;;;;;;;;;5031004;28;20078;-84
2023/07/13 02:05:10;;;;;;;5.50;1.45;;;;;;;;;;5033115;28;20031;-84
2023/07/13 02:07:36;;;;;;;5.25;1.67;;;;;;;;;;5029851;28;20027;-85
2023/07/13 02:10:02;;;;;;;5.68;1.85;;;;;;;;;;5034471;28;20104;-84
2023/07/13 02:12:27;;;;;;;4.55;1.73;;;;;;;;;;5032281;28;20021;-85
2023/07/13 02:14:53;;;;;;;4.93;1.75;;;;;;;;;;5031065;28;20022;-85
2023/07/13 02:17:18;;;;;;;5.35;1.40;;;;;;;;;;5031663;28;20113;-84
2023/07/13 02:19:43;;;;;;;3.90;1.35;;;;;;;;;;5030316;28;20049;-84
2023/07/13 02:22:09;;;;;;;4.05;1.95;;;;;;;;;;5028743;28;20109;-85
2023/07/13 02:24:35;;;;;;;3.97;1.52;;;;;;;;;;5032232;28;20057;-84
2023/07/13 02:27:00;;;;;;;3.08;1.40;;;;;;;;;;5030186;28;20059;-85
2023/07/13 02:29:25;;;;;;;4.03;1.70;;;;;;;;;;5039796;28;20024;-84
2023/07/13 02:31:51;;;;;;;5.70;1.35;;;;;;;;;;5030354;28;20079;-85
2023/07/13 02:34:16;;;;;;;3.97;1.40;;;;;;;;;;5032140;28;20470;-84
2023/07/13 02:36:41;;;;;;;5.68;2.08;;;;;;;;;;5030834;28;20045;-86
2023/07/13 02:39:07;;;;;;;4.43;1.88;;;;;;;;;;5032278;28;20040;-85
2023/07/13 02:41:32;;;;;;;7.63;1.60;;;;;;;;;;5031070;28;20024;-83
2023/07/13 02:44:03;;;;;;;5.13;1.52;;;;;;;;;;5033473;28;20533;-85
2023/07/13 02:46:36;;;;;;;4.95;1.60;;;;;;;;;;5032596;28;20027;-86
2023/07/13 02:49:02;;;;;;;3.50;1.40;;;;;;;;;;5034343;28;20493;-85
2023/07/13 02:51:28;;;;;;;4.65;1.60;;;;;;;;;;5027823;28;20119;-85
2023/07/13 02:53:53;;;;;;;3.78;1.50;;;;;;;;;;5028585;28;20078;-85
2023/07/13 02:56:24;;;;;;;6.13;1.70;;;;;;;;;;5035201;28;20040;-83
2023/07/13 02:58:49;;;;;;;4.47;1.70;;;;;;;;;;5028050;28;20026;-85
2023/07/13 03:01:17;;;;;;;3.03;1.60;;;;;;;;;;5026940;28;20040;-85
2023/07/13 03:03:43;;;;;;;4.40;1.67;;;;;;;;;;5031705;28;20028;-85
2023/07/13 03:06:08;;;;;;;5.25;1.52;;;;;;;;;;5035961;28;20052;-85
2023/07/13 03:08:34;;;;;;;5.65;1.70;;;;;;;;;;5035204;28;20028;-85
2023/07/13 03:11:08;;;;;;;5.22;1.77;;;;;;;;;;5032138;28;20048;-84
2023/07/13 03:13:34;;;;;;;5.05;1.60;;;;;;;;;;5033673;28;20029;-84
2023/07/13 03:16:00;;;;;;;3.92;1.58;;;;;;;;;;5032346;28;20104;-84
2023/07/13 03:18:27;;;;;;;2.85;1.60;;;;;;;;;;5038199;28;20358;-85
2023/07/13 03:20:53;;;;;;;6.63;1.70;;;;;;;;;;5032545;28;20116;-85
2023/07/13 03:23:19;;;;;;;4.63;1.77;;;;;;;;;;5036206;28;20505;-85
2023/07/13 03:25:45;;;;;;;4.78;1.73;;;;;;;;;;5032750;28;20021;-85
2023/07/13 03:28:11;;;;;;;5.93;1.60;;;;;;;;;;5026910;28;20489;-84
2023/07/13 03:30:36;;;;;;;7.55;2.20;;;;;;;;;;5033812;28;20080;-84
2023/07/13 03:33:02;;;;;;;4.15;1.67;;;;;;;;;;5029960;28;20037;-86
2023/07/13 03:35:27;;;;;;;5.38;1.73;;;;;;;;;;5034864;28;20063;-85
2023/07/13 03:37:53;;;;;;;6.38;1.88;;;;;;;;;;5034716;28;20052;-85
2023/07/13 03:40:19;;;;;;;6.00;1.83;;;;;;;;;;5017378;28;20043;-84
2023/07/13 03:42:44;;;;;;;5.68;1.80;;;;;;;;;;5034903;28;20370;-84
2023/07/13 03:45:09;;;;;;;5.97;1.80;;;;;;;;;;5036436;28;20167;-85
2023/07/13 03:47:35;;;;;;;6.15;2.30;;;;;;;;;;5034619;28;20363;-85
2023/07/13 03:50:00;;;;;;;5.15;1.80;;;;;;;;;;5036771;28;20033;-83
2023/07/13 03:52:26;;;;;;;6.22;2.47;;;;;;;;;;5025662;28;20034;-84
2023/07/13 03:54:51;;;;;;;4.18;1.55;;;;;;;;;;5033488;28;20052;-85
2023/07/13 03:57:17;;;;;;;6.85;1.88;;;;;;;;;;5039921;28;20367;-84
2023/07/13 03:59:42;;;;;;;5.88;1.95;;;;;;;;;;5033174;28;20394;-81
2023/07/13 04:02:08;;;;;;;4.85;1.90;;;;;;;;;;5032650;28;20541;-85
2023/07/13 04:04:33;;;;;;;4.43;2.17;;;;;;;;;;5047758;28;20044;-84
2023/07/13 04:06:59;;;;;;;5.85;1.90;;;;;;;;;;5032683;28;20111;-83
2023/07/13 04:09:25;;;;;;;5.18;2.00;;;;;;;;;;5040065;28;20087;-85
2023/07/13 04:11:50;;;;;;;5.43;2.00;;;;;;;;;;5036122;28;20532;-85
2023/07/13 04:14:16;;;;;;;7.95;1.80;;;;;;;;;;5033179;28;20026;-84
2023/07/13 04:16:43;;;;;;;6.13;2.08;;;;;;;;;;5026629;28;20021;-84
2023/07/13 04:19:10;;;;;;;6.88;2.42;;;;;;;;;;5033614;28;20097;-84
2023/07/13 04:21:36;;;;;;;8.13;2.22;;;;;;;;;;5029855;28;20021;-85
2023/07/13 04:24:02;;;;;;;6.88;1.90;;;;;;;;;;5017416;28;20087;-85
2023/07/13 04:26:29;;;;;;;8.93;2.00;;;;;;;;;;5023774;28;20040;-84
2023/07/13 04:28:55;;;;;;;7.82;2.35;;;;;;;;;;5031244;28;20031;-85
2023/07/13 04:31:20;;;;;;;6.30;2.33;;;;;;;;;;5029245;28;20047;-85
2023/07/13 04:33:47;;;;;;;7.38;1.90;;;;;;;;;;5025077;28;20034;-85
2023/07/13 04:36:12;;;;;;;7.28;2.55;;;;;;;;;;5026976;28;20100;-84
2023/07/13 04:38:37;;;;;;;5.93;2.17;;;;;;;;;;5034315;28;20036;-84
2023/07/13 04:41:06;;;;;;;5.80;2.30;;;;;;;;;;5028410;28;20025;-86
2023/07/13 04:43:32;;;;;;;7.45;2.15;;;;;;;;;;5031589;28;20032;-84
2023/07/13 04:46:13;;;;;;;7.32;2.33;;;;;;;;;;5031476;28;20063;-84
2023/07/13 04:48:39;;;;;;;5.18;1.92;;;;;;;;;;5030926;28;20025;-84
2023/07/13 04:51:04;;;;;;;7.53;2.15;;;;;;;;;;5032753;28;20105;-85
2023/07/13 04:53:32;;;;;;;5.88;1.92;;;;;;;;;;5039388;28;20485;-84
2023/07/13 04:55:58;;;;;;;5.68;1.83;;;;;;;;;;5031368;28;20030;-84
2023/07/13 04:58:24;;;;;;;8.68;2.10;;;;;;;;;;5028566;28;21990;-85
2023/07/13 05:00:50;;;;;;;6.53;2.22;;;;;;;;;;5036657;28;20029;-85
2023/07/13 05:03:16;;;;;;;4.20;1.90;;;;;;;;;;5027856;28;20027;-85
2023/07/13 05:05:41;;;;;;;8.50;2.15;;;;;;;;;;5037743;28;20025;-85
2023/07/13 05:08:07;;;;;;;5.63;2.10;;;;;;;;;;5035374;28;20029;-85
2023/07/13 05:10:33;;;;;;;9.77;2.80;;;;;;;;;;5013509;28;20026;-85
2023/07/13 05:12:58;;;;;;;9.25;3.25;;;;;;;;;;5034026;28;20087;-85
2023/07/13 05:15:25;;;;;;;6.93;2.58;;;;;;;;;;5025458;28;20478;-86
2023/07/13 05:17:50;;;;;;;7.20;2.88;;;;;;;;;;5044873;28;20021;-84
2023/07/13 05:20:17;;;;;;;8.88;3.00;;;;;;;;;;5037287;28;20029;-84
2023/07/13 05:22:43;;;;;;;7.60;2.63;;;;;;;;;;5033942;28;20029;-86
2023/07/13 05:25:09;;;;;;;6.43;2.85;;;;;;;;;;5035796;28;20036;-85
2023/07/13 05:27:36;;;;;;;11.23;3.45;;;;;;;;;;5020861;28;20044;-85
2023/07/13 05:30:03;;;;;;;10.27;3.72;;;;;;;;;;5033238;28;20500;-86
2023/07/13 05:32:28;;;;;;;9.23;3.60;;;;;;;;;;5037381;28;20049;-81
2023/07/13 05:34:54;;;;;;;11.07;3.97;;;;;;;;;;5030723;28;20057;-79
2023/07/13 05:37:19;;;;;;;6.90;3.80;;;;;;;;;;5034304;28;20029;-85
2023/07/13 05:39:45;;;;;;;10.30;4.07;;;;;;;;;;5037182;28;20537;-86
2023/07/13 05:42:10;;;;;;;10.35;4.30;;;;;;;;;;5032834;28;20028;-85
2023/07/13 05:44:35;;;;;;;10.52;3.80;;;;;;;;;;5034920;28;20029;-85
2023/07/13 05:47:01;;;;;;;10.00;3.92;;;;;;;;;;5033752;28;20112;-85
2023/07/13 05:49:26;;;;;;;9.40;4.15;;;;;;;;;;5026276;28;20065;-86
2023/07/13 05:51:52;;;;;;;8.98;3.75;;;;;;;;;;5026693;28;20100;-85
2023/07/13 05:54:18;;;;;;;12.75;4.90;;;;;;;;;;5040494;28;20025;-85
2023/07/13 05:56:43;;;;;;;9.57;3.85;;;;;;;;;;5038175;28;20021;-85
2023/07/13 05:59:08;;;;;;;9.40;4.43;;;;;;;;;;5035195;28;20120;-85
2023/07/13 06:01:34;;;;;;;13.05;4.82;;;;;;;;;;5027098;28;20022;-82
2023/07/13 06:03:59;;;;;;;12.52;5.10;;;;;;;;;;5034655;28;20116;-85
2023/07/13 06:06:25;;;;;;;9.00;4.20;;;;;;;;;;5032077;28;20509;-84
2023/07/13 06:08:50;;;;;;;9.65;4.57;;;;;;;;;;5030533;28;20037;-85
2023/07/13 06:11:22;;;;;;;10.63;4.53;;;;;;;;;;5036099;28;20377;-85
2023/07/13 06:13:47;;;;;;;10.90;5.00;;;;;;;;;;5033632;28;20036;-85
2023/07/13 06:16:14;;;;;;;11.40;5.40;;;;;;;;;;5029125;28;20025;-82
2023/07/13 06:18:40;;;;;;;10.15;5.50;;;;;;;;;;5036685;28;20041;-86
2023/07/13 06:21:19;;;;;;;14.10;5.93;;;;;;;;;;5028127;28;20470;-85
2023/07/13 06:23:47;;;;;;;12.73;5.50;;;;;;;;;;5034265;28;20120;-85
2023/07/13 06:26:13;;;;;;;11.98;5.80;;;;;;;;;;5042776;28;20033;-85
2023/07/13 06:28:39;;;;;;;13.55;5.70;;;;;;;;;;5034688;28;20083;-86
2023/07/13 06:31:07;;;;;;;10.05;4.75;;;;;;;;;;5033619;28;20026;-84
2023/07/13 06:33:32;;;;;;;11.00;5.50;;;;;;;;;;5039639;28;20025;-85
2023/07/13 06:36:01;;;;;;;11.38;6.25;;;;;;;;;;5037008;28;20025;-86
2023/07/13 06:38:27;;;;;;;14.40;6.57;;;;;;;;;;5036308;28;20092;-86
2023/07/13 06:40:52;;;;;;;13.45;6.40;;;;;;;;;;5034768;28;20026;-86
2023/07/13 06:43:18;;;;;;;11.63;5.95;;;;;;;;;;5034905;28;20502;-85
2023/07/13 06:45:49;;;;;;;17.60;7.28;;;;;;;;;;5040574;28;20395;-85
2023/07/13 06:48:19;;;;;;;18.13;7.70;;;;;;;;;;5031085;28;20044;-78
2023/07/13 06:50:45;;;;;;;15.65;8.05;;;;;;;;;;5050239;28;20500;-85
2023/07/13 06:53:12;;;;;;;17.50;7.57;;;;;;;;;;5041978;28;20029;-83
2023/07/13 06:55:38;;;;;;;12.90;7.07;;;;;;;;;;5035906;28;20367;-83
2023/07/13 06:58:03;;;;;;;10.05;7.43;;;;;;;;;;5032212;28;20041;-86
2023/07/13 07:00:29;;;;;;;12.18;7.30;;;;;;;;;;5029507;28;20477;-81
2023/07/13 07:02:54;;;;;;;14.15;7.03;;;;;;;;;;5046559;28;20597;-85
2023/07/13 07:05:21;;;;;;;17.98;8.68;;;;;;;;;;5033609;28;20029;-81
2023/07/13 07:07:47;;;;;;;16.73;8.32;;;;;;;;;;5033955;28;20033;-81
2023/07/13 07:10:13;;;;;;;14.52;8.65;;;;;;;;;;5035424;28;20025;-84
2023/07/13 07:12:38;;;;;;;14.38;8.00;;;;;;;;;;5029444;28;20071;-85
2023/07/13 07:15:04;;;;;;;12.15;8.23;;;;;;;;;;5037077;28;20033;-84
2023/07/13 07:17:30;;;;;;;14.75;8.80;;;;;;;;;;5038349;28;20040;-86
2023/07/13 07:19:55;;;;;;;19.88;8.25;;;;;;;;;;5045434;28;20080;-85
2023/07/13 07:22:21;;;;;;;14.80;8.48;;;;;;;;;;5038893;28;20156;-85
2023/07/13 07:24:46;;;;;;;16.08;8.73;;;;;;;;;;5037028;28;20021;-86
2023/07/13 07:27:12;;;;;;;14.30;8.02;;;;;;;;;;5031034;28;20037;-86
2023/07/13 07:29:37;;;;;;;14.25;8.75;;;;;;;;;;5033018;28;20037;-85
2023/07/13 07:32:03;;;;;;;14.50;8.50;;;;;;;;;;5039775;28;20017;-85
2023/07/13 07:34:28;;;;;;;17.13;8.60;;;;;;;;;;5030128;28;20025;-86
2023/07/13 07:36:54;;;;;;;17.48;9.00;;;;;;;;;;5038196;28;20034;-85
2023/07/13 07:39:19;;;;;;;15.43;8.52;;;;;;;;;;5037510;28;20040;-85
2023/07/13 07:41:45;;;;;;;16.75;10.32;;;;;;;;;;5037411;28;20091;-86
2023/07/13 07:44:10;;;;;;;14.82;8.93;;;;;;;;;;5039121;28;20040;-86
2023/07/13 07:46:36;;;;;;;16.15;9.45;;;;;;;;;;5035997;28;20026;-87
2023/07/13 07:49:01;;;;;;;16.23;9.43;;;;;;;;;;5034851;28;20036;-85
2023/07/13 07:51:26;;;;;;;17.08;8.90;;;;;;;;;;5037151;28;20052;-86
2023/07/13 07:53:52;;;;;;;12.80;8.63;;;;;;;;;;5032309;28;20055;-84
2023/07/13 07:56:18;;;;;;;15.85;8.68;;;;;;;;;;5034728;28;20099;-86
2023/07/13 07:58:44;;;;;;;17.75;8.45;;;;;;;;;;5034248;28;20021;-86
2023/07/13 08:01:09;;;;;;;16.85;8.95;;;;;;;;;;5033923;28;20486;-85
2023/07/13 08:03:35;;;;;;;10.68;7.43;;;;;;;;;;5034543;28;20060;-85
2023/07/13 08:06:00;;;;;;;15.38;8.90;;;;;;;;;;5033384;28;20061;-85
2023/07/13 08:08:25;;;;;;;17.52;9.35;;;;;;;;;;5033322;28;20036;-86
2023/07/13 08:10:51;;;;;;;14.82;8.73;;;;;;;;;;5030627;28;20028;-86
2023/07/13 08:13:16;;;;;;;15.07;9.13;;;;;;;;;;5040512;28;20036;-86
2023/07/13 08:15:42;;;;;;;14.48;8.27;;;;;;;;;;5041640;28;20021;-85
2023/07/13 08:18:09;;;;;;;14.27;8.27;;;;;;;;;;5041351;28;20509;-84
2023/07/13 08:20:38;;;;;;;14.65;8.07;;;;;;;;;;5038547;28;20033;-83
2023/07/13 08:23:03;;;;;;;11.38;7.53;;;;;;;;;;5038199;28;20063;-86
2023/07/13 08:25:29;;;;;;;12.75;8.02;;;;;;;;;;5039488;28;20029;-84
2023/07/13 08:27:54;;;;;;;14.35;7.60;;;;;;;;;;5041289;28;20482;-85
2023/07/13 08:30:20;;;;;;;15.13;8.02;;;;;;;;;;5037630;28;20395;-87
2023/07/13 08:32:45;;;;;;;12.15;8.32;;;;;;;;;;5034154;28;20093;-81
2023/07/13 08:35:10;;;;;;;13.68;8.40;;;;;;;;;;5038734;28;20060;-84
2023/07/13 08:37:36;;;;;;;12.85;7.55;;;;;;;;;;5036785;28;20025;-86
2023/07/13 08:40:01;;;;;;;16.08;8.07;;;;;;;;;;5046022;28;20063;-86
2023/07/13 08:42:39;;;;;;;13.88;7.28;;;;;;;;;;5040869;28;20053;-86
2023/07/13 08:45:22;;;;;;;12.60;6.75;;;;;;;;;;5034851;28;20037;-86
2023/07/13 08:47:50;;;;;;;;;;;;;;;;;;5040308;28;20049;-85
2023/07/13 08:50:19;;;;;;;10.90;6.13;;;;;;;;;;5036573;28;19920;-85
2023/07/13 08:52:46;;;;;;;11.95;7.55;;;;;;;;;;5036070;28;20025;-86
2023/07/13 08:55:33;;;;;;;11.65;6.50;;;;;;;;;;5039714;28;20065;-84
2023/07/13 08:58:09;;;;;;;12.95;7.70;;;;;;;;;;5035259;28;20029;-86
2023/07/13 09:00:43;;;;;;;10.48;6.90;;;;;;;;;;5031743;28;20053;-85
2023/07/13 09:03:20;;;;;;;11.13;7.10;;;;;;;;;;5039458;28;20029;-86
2023/07/13 09:05:51;;;;;;;9.48;6.10;;;;;;;;;;5038464;28;20038;-85
2023/07/13 09:08:22;;;;;;;12.55;5.97;;;;;;;;;;5033692;28;20501;-81
2023/07/13 09:10:58;;;;;;;10.57;6.43;;;;;;;;;;5023958;28;20037;-84
2023/07/13 09:13:31;;;;;;;9.43;5.38;;;;;;;;;;5027223;28;20758;-83
2023/07/13 09:15:59;;;;;;;9.68;4.90;;;;;;;;;;5028793;28;20037;-84
2023/07/13 09:18:34;;;;;;;8.50;5.60;;;;;;;;;;5029816;28;20090;-83
2023/07/13 09:21:05;;;;;;;9.00;5.63;;;;;;;;;;5029659;28;20937;-83
2023/07/13 09:23:31;;;;;;;8.88;5.20;;;;;;;;;;5029196;28;20037;-85
2023/07/13 09:26:20;;;;;;;7.78;4.95;;;;;;;;;;5043936;28;20482;-80
2023/07/13 09:28:48;;;;;;;9.10;5.22;;;;;;;;;;5053173;28;20398;-85
2023/07/13 09:31:18;;;;;;;9.00;5.05;;;;;;;;;;5034037;28;20026;-84
2023/07/13 09:33:45;;;;;;;8.80;5.07;;;;;;;;;;5029348;28;20482;-83
2023/07/13 09:36:24;;;;;;;9.38;5.53;;;;;;;;;;5031005;28;20961;-83
2023/07/13 09:39:14;;;;;;;13.15;5.80;;;;;;;;;;5029662;28;20435;-80
2023/07/13 09:41:39;;;;;;;7.95;5.68;;;;;;;;;;5025666;28;20055;-78
2023/07/13 09:44:13;;;;;;;10.48;6.15;;;;;;;;;;5019697;28;20033;-87
2023/07/13 09:46:53;;;;;;;12.93;6.78;;;;;;;;;;5025840;28;20028;-85
2023/07/13 09:49:27;;;;;;;10.20;5.80;;;;;;;;;;5019506;28;20060;-85
2023/07/13 09:52:04;;;;;;;9.27;5.43;;;;;;;;;;5018339;28;20454;-87
2023/07/13 09:54:34;;;;;;;7.30;4.43;;;;;;;;;;5025550;28;20029;-86
2023/07/13 09:57:01;;;;;;;8.05;4.90;;;;;;;;;;5043559;28;20029;-85
2023/07/13 09:59:32;;;;;;;9.93;3.80;;;;;;;;;;5018603;28;20025;-78
2023/07/13 10:01:58;;;;;;;7.68;4.38;;;;;;;;;;5025395;28;20025;-84
2023/07/13 10:04:32;;;;;;;10.90;4.43;;;;;;;;;;5026565;28;20040;-82
2023/07/13 10:07:09;;;;;;;7.80;4.00;;;;;;;;;;5030225;28;20037;-83
2023/07/13 10:09:34;;;;;;;6.97;4.05;;;;;;;;;;5027931;28;20782;-85
2023/07/13 10:12:00;;;;;;;6.57;3.90;;;;;;;;;;5024126;28;20049;-85
2023/07/13 10:14:26;;;;;;;7.45;5.60;;;;;;;;;;5029359;28;20030;-81
2023/07/13 10:17:02;;;;;;;10.40;5.50;;;;;;;;;;5025012;28;20060;-81
2023/07/13 10:19:32;;;;;;;7.95;4.43;;;;;;;;;;5020663;28;20557;-85
2023/07/13 10:22:21;;;;;;;9.05;5.15;;;;;;;;;;5025488;28;20541;-85
2023/07/13 10:24:47;;;;;;;9.18;4.88;;;;;;;;;;5033098;28;20026;-88
2023/07/13 10:27:20;;;;;;;9.15;4.50;;;;;;;;;;5041027;28;20037;-84
2023/07/13 10:29:59;;;;;;;7.47;4.72;;;;;;;;;;5038380;28;20099;-84
2023/07/13 10:32:25;;;;;;;10.73;4.72;;;;;;;;;;5036034;28;20097;-81
2023/07/13 10:34:52;;;;;;;7.95;3.83;;;;;;;;;;5031024;28;20104;-81
2023/07/13 10:37:25;;;;;;;11.38;4.93;;;;;;;;;;5033118;28;20413;-77
2023/07/13 10:39:54;;;;;;;10.30;5.25;;;;;;;;;;5026092;28;20061;-76
2023/07/13 10:42:32;;;;;;;9.90;4.82;;;;;;;;;;5025822;28;20398;-76
2023/07/13 10:44:57;;;;;;;8.73;4.50;;;;;;;;;;5029501;28;20562;-76
2023/07/13 10:47:24;;;;;;;6.90;4.10;;;;;;;;;;5023721;28;20041;-76
2023/07/13 10:49:54;;;;;;;6.50;3.80;;;;;;;;;;5028208;28;20040;-76
2023/07/13 10:52:50;;;;;;;6.10;3.15;;;;;;;;;;5022027;28;20405;-76
2023/07/13 10:55:39;;;;;;;4.07;2.28;;;;;;;;;;5027105;28;20041;-80
2023/07/13 10:58:41;;;;;;;3.50;2.10;;;;;;;;;;5035934;28;20072;-76
2023/07/13 11:01:10;;;;;;;3.80;1.92;;;;;;;;;;5019469;28;20525;-75
2023/07/13 11:04:00;;;;;;;2.35;1.67;;;;;;;;;;5029542;28;20034;-76
2023/07/13 11:06:32;;;;;;;4.75;2.00;;;;;;;;;;5023313;28;20029;-76
2023/07/13 11:09:19;;;;;;;4.50;2.00;;;;;;;;;;5036956;28;20032;-75
2023/07/13 11:11:44;;;;;;;5.88;2.47;;;;;;;;;;5029623;28;20066;-76
2023/07/13 11:14:38;;;;;;;5.80;3.00;;;;;;;;;;5025686;28;20035;-76
2023/07/13 11:17:35;;;;;;;3.75;2.28;;;;;;;;;;5021501;28;20068;-75
2023/07/13 11:20:12;;;;;;;7.55;3.47;;;;;;;;;;5024012;28;20115;-75
2023/07/13 11:23:07;;;;;;;5.82;3.28;;;;;;;;;;5014724;28;20033;-75
2023/07/13 11:25:34;;;;;;;8.23;4.22;;;;;;;;;;5011639;28;20453;-75
2023/07/13 11:28:16;;;;;;;6.75;4.25;;;;;;;;;;5016144;28;20795;-76
2023/07/13 11:30:57;;;;;;;8.63;4.70;;;;;;;;;;5023255;28;20036;-75
2023/07/13 11:33:39;;;;;;;7.28;4.93;;;;;;;;;;5019309;28;20132;-76
2023/07/13 11:36:19;;;;;;;8.95;4.65;;;;;;;;;;5022091;28;20063;-77
2023/07/13 11:38:59;;;;;;;12.63;5.10;;;;;;;;;;5026481;28;20048;-76
2023/07/13 11:41:30;;;;;;;6.70;4.07;;;;;;;;;;5025376;28;20036;-78
2023/07/13 11:44:05;;;;;;;7.07;4.53;;;;;;;;;;5025642;28;20032;-75
2023/07/13 11:46:31;;;;;;;10.52;4.28;;;;;;;;;;5022747;28;20099;-76
2023/07/13 11:48:56;;;;;;;7.07;3.88;;;;;;;;;;5019366;28;20033;-75
2023/07/13 11:51:26;;;;;;;8.82;4.07;;;;;;;;;;5029566;28;20325;-76
2023/07/13 11:53:55;;;;;;;6.70;4.20;;;;;;;;;;5030863;28;20029;-79
2023/07/13 11:56:21;;;;;;;7.75;3.80;;;;;;;;;;5033540;28;20033;-75
2023/07/13 11:58:56;;;;;;;7.80;3.75;;;;;;;;;;5032314;28;20032;-75
2023/07/13 12:01:26;;;;;;;8.35;4.18;;;;;;;;;;5026877;28;20025;-75
2023/07/13 12:03:53;;;;;;;7.32;3.40;;;;;;;;;;5019565;28;20113;-75
2023/07/13 12:06:29;;;;;;;5.50;2.80;;;;;;;;;;5026178;28;20116;-77
2023/07/13 12:09:03;;;;;;;5.40;2.60;;;;;;;;;;5018930;28;20410;-77
2023/07/13 12:11:30;;;;;;;6.43;2.70;;;;;;;;;;5022419;28;20021;-76
2023/07/13 12:13:55;;;;;;;6.72;2.70;;;;;;;;;;5016786;28;20029;-77
2023/07/13 12:16:27;;;;;;;4.68;2.40;;;;;;;;;;5025329;28;20140;-76
2023/07/13 12:18:54;;;;;;;4.40;2.17;;;;;;;;;;5025588;28;20029;-75
2023/07/13 12:21:21;;;;;;;4.40;2.47;;;;;;;;;;5022697;28;20033;-75
2023/07/13 12:23:49;;;;;;;5.50;2.33;;;;;;;;;;5027755;28;20120;-75
2023/07/13 12:26:17;;;;;;;4.40;2.13;;;;;;;;;;5035834;28;20037;-75
2023/07/13 12:28:56;;;;;;;6.65;2.30;;;;;;;;;;5031300;28;20033;-76
2023/07/13 12:31:30;;;;;;;5.65;2.65;;;;;;;;;;5029778;28;20025;-75
2023/07/13 12:34:21;;;;;;;5.25;2.20;;;;;;;;;;5021677;28;20060;-76
2023/07/13 12:36:55;;;;;;;3.78;2.00;;;;;;;;;;5026530;28;20496;-75
2023/07/13 12:39:24;;;;;;;5.15;2.13;;;;;;;;;;5037114;28;20029;-74
2023/07/13 12:41:51;;;;;;;4.88;2.03;;;;;;;;;;5029706;28;20385;-76
2023/07/13 12:44:25;;;;;;;5.28;2.40;;;;;;;;;;5035409;28;20605;-75
2023/07/13 12:47:04;;;;;;;4.47;2.05;;;;;;;;;;5031136;28;20026;-76
2023/07/13 12:49:34;;;;;;;5.10;1.85;;;;;;;;;;5031230;28;20030;-75
2023/07/13 12:52:03;;;;;;;5.75;2.00;;;;;;;;;;5028400;28;20061;-75
2023/07/13 12:54:30;;;;;;;3.47;1.83;;;;;;;;;;5031583;28;20025;-75
2023/07/13 12:56:58;;;;;;;4.72;2.17;;;;;;;;;;5042057;28;20016;-75
2023/07/13 12:59:28;;;;;;;4.50;2.13;;;;;;;;;;5034682;28;20385;-75
2023/07/13 13:01:53;;;;;;;4.60;2.15;;;;;;;;;;5023969;28;20022;-76
2023/07/13 13:04:21;;;;;;;5.18;1.98;;;;;;;;;;5033407;28;20045;-76
2023/07/13 13:06:47;;;;;;;5.90;2.42;;;;;;;;;;5040622;28;20029;-76
2023/07/13 13:09:15;;;;;;;4.07;1.90;;;;;;;;;;5029336;28;20025;-75
2023/07/13 13:11:41;;;;;;;4.13;1.88;;;;;;;;;;5030544;28;20071;-75
2023/07/13 13:14:08;;;;;;;4.05;2.00;;;;;;;;;;5027315;28;20120;-75
2023/07/13 13:16:50;;;;;;;5.30;1.85;;;;;;;;;;5030413;28;20025;-75
2023/07/13 13:19:23;;;;;;;4.97;1.92;;;;;;;;;;5029566;28;20087;-75
2023/07/13 13:21:52;;;;;;;4.55;2.00;;;;;;;;;;5034403;28;20091;-75
2023/07/13 13:24:20;;;;;;;3.40;1.98;;;;;;;;;;5024359;28;20104;-75
2023/07/13 13:26:47;;;;;;;4.68;2.42;;;;;;;;;;5034728;28;20493;-75
2023/07/13 13:29:18;;;;;;;5.72;2.10;;;;;;;;;;5029328;28;20120;-75
2023/07/13 13:31:44;;;;;;;3.92;2.00;;;;;;;;;;5036225;28;20021;-75
2023/07/13 13:34:11;;;;;;;4.60;2.20;;;;;;;;;;5029838;28;20448;-76
2023/07/13 13:36:37;;;;;;;5.50;2.03;;;;;;;;;;5027385;28;20092;-76
2023/07/13 13:39:04;;;;;;;4.13;1.90;;;;;;;;;;5031362;28;20037;-75
2023/07/13 13:41:30;;;;;;;5.38;2.08;;;;;;;;;;5031816;28;20032;-75
2023/07/13 13:43:55;;;;;;;5.25;2.00;;;;;;;;;;5037700;28;20107;-75
2023/07/13 13:46:24;;;;;;;4.07;2.20;;;;;;;;;;5031634;28;20029;-78
2023/07/13 13:48:50;;;;;;;4.97;2.10;;;;;;;;;;5034051;28;20296;-75
2023/07/13 13:51:22;;;;;;;4.05;2.15;;;;;;;;;;5036510;28;20025;-75
2023/07/13 13:53:48;;;;;;;3.97;1.83;;;;;;;;;;5032208;28;20504;-76
2023/07/13 13:56:14;;;;;;;4.22;2.00;;;;;;;;;;5034295;28;20033;-75
2023/07/13 13:58:40;;;;;;;3.22;1.83;;;;;;;;;;5029819;28;20029;-75
2023/07/13 14:01:16;;;;;;;4.65;1.90;;;;;;;;;;5024661;28;20022;-75
2023/07/13 14:03:42;;;;;;;6.18;2.10;;;;;;;;;;5027220;28;20043;-75
2023/07/13 14:06:12;;;;;;;4.78;1.77;;;;;;;;;;5028158;28;20152;-75
2023/07/13 14:08:37;;;;;;;4.72;1.90;;;;;;;;;;5027275;28;20029;-74
2023/07/13 14:11:03;;;;;;;5.25;1.85;;;;;;;;;;5031369;28;20389;-75
2023/07/13 14:13:36;;;;;;;4.40;1.60;;;;;;;;;;5030125;28;20059;-77
2023/07/13 14:16:02;;;;;;;3.50;1.60;;;;;;;;;;5025305;28;20539;-75
2023/07/13 14:18:27;;;;;;;5.75;1.80;;;;;;;;;;5028798;28;20037;-75
2023/07/13 14:20:53;;;;;;;4.45;1.50;;;;;;;;;;5028628;28;20022;-76
2023/07/13 14:23:19;;;;;;;3.85;1.40;;;;;;;;;;5030629;28;20036;-75
2023/07/13 14:25:46;;;;;;;3.70;1.77;;;;;;;;;;5023966;28;20029;-75
2023/07/13 14:28:32;;;;;;;3.17;1.58;;;;;;;;;;5029722;28;20029;-76
2023/07/13 14:30:57;;;;;;;5.90;2.05;;;;;;;;;;5027896;28;20079;-76
2023/07/13 14:33:23;;;;;;;7.07;2.30;;;;;;;;;;5027468;28;20029;-75
2023/07/13 14:35:49;;;;;;;6.90;1.95;;;;;;;;;;5027320;28;20496;-76
2023/07/13 14:38:19;;;;;;;8.23;2.13;;;;;;;;;;5025814;28;20029;-74
2023/07/13 14:40:45;;;;;;;4.32;2.05;;;;;;;;;;5029406;28;20034;-75
2023/07/13 14:43:12;;;;;;;5.38;2.30;;;;;;;;;;5025771;28;20549;-75
2023/07/13 14:45:40;;;;;;;7.55;2.30;;;;;;;;;;5026856;28;20032;-75
2023/07/13 14:48:17;;;;;;;4.32;2.47;;;;;;;;;;5041155;28;21178;-75
2023/07/13 14:50:43;;;;;;;6.03;2.42;;;;;;;;;;5003761;28;20026;-75